sensor_id;sensor_type;location;lat;lon;timestamp;pressure;altitude;pressure_sealevel;temperature;humidity
40650;BME280;26342;42.826;23.992;2023-02-03T00:00:51;95540.69;;;0.20;100.00
40650;BME280;26342;42.826;23.992;2023-02-03T00:03:16;95531.34;;;0.11;100.00
40650;BME280;26342;42.826;23.992;2023-02-03T00:05:42;95537.59;;;0.10;100.00
40650;BME280;26342;42.826;23.992;2023-02-03T00:08:08;95547.00;;;0.04;100.00
40650;BME280;26342;42.826;23.992;2023-02-03T00:10:36;95537.66;;;0.16;100.00
40650;BME280;26342;42.826;23.992;2023-02-03T00:13:03;95541.69;;;0.19;100.00
40650;BME280;26342;42.826;23.992;2023-02-03T00:15:28;95541.56;;;0.27;100.00
40650;BME280;26342;42.826;23.992;2023-02-03T00:17:53;95538.28;;;0.18;100.00
40650;BME280;26342;42.826;23.992;2023-02-03T00:20:19;95536.06;;;0.22;100.00
40650;BME280;26342;42.826;23.992;2023-02-03T00:22:44;95529.94;;;0.15;100.00
40650;BME280;26342;42.826;23.992;2023-02-03T00:25:09;95545.19;;;0.26;100.00
40650;BME280;26342;42.826;23.992;2023-02-03T00:27:35;95544.19;;;0.27;100.00
40650;BME280;26342;42.826;23.992;2023-02-03T00:30:00;95539.50;;;0.22;100.00
40650;BME280;26342;42.826;23.992;2023-02-03T00:32:26;95551.50;;;0.32;100.00
40650;BME280;26342;42.826;23.992;2023-02-03T00:34:51;95549.31;;;0.35;100.00
40650;BME280;26342;42.826;23.992;2023-02-03T00:37:17;95546.81;;;0.27;100.00
40650;BME280;26342;42.826;23.992;2023-02-03T00:39:42;95550.06;;;0.29;100.00
40650;BME280;26342;42.826;23.992;2023-02-03T00:42:07;95553.88;;;0.26;100.00
40650;BME280;26342;42.826;23.992;2023-02-03T00:44:33;95562.84;;;0.32;100.00
40650;BME280;26342;42.826;23.992;2023-02-03T00:46:58;95554.56;;;0.35;100.00
40650;BME280;26342;42.826;23.992;2023-02-03T00:49:24;95552.47;;;0.24;100.00
40650;BME280;26342;42.826;23.992;2023-02-03T00:51:49;95553.22;;;0.18;100.00
40650;BME280;26342;42.826;23.992;2023-02-03T00:54:15;95548.78;;;0.18;100.00
40650;BME280;26342;42.826;23.992;2023-02-03T00:56:40;95561.09;;;0.18;100.00
40650;BME280;26342;42.826;23.992;2023-02-03T00:59:06;95559.94;;;0.27;100.00
40650;BME280;26342;42.826;23.992;2023-02-03T01:01:32;95561.44;;;0.36;100.00
40650;BME280;26342;42.826;23.992;2023-02-03T01:03:58;95540.63;;;0.35;100.00
40650;BME280;26342;42.826;23.992;2023-02-03T01:06:25;95562.25;;;0.37;100.00
40650;BME280;26342;42.826;23.992;2023-02-03T01:08:50;95545.81;;;0.28;100.00
40650;BME280;26342;42.826;23.992;2023-02-03T01:11:19;95570.13;;;0.37;100.00
40650;BME280;26342;42.826;23.992;2023-02-03T01:13:45;95563.66;;;0.33;100.00
40650;BME280;26342;42.826;23.992;2023-02-03T01:16:13;95550.94;;;0.36;100.00
40650;BME280;26342;42.826;23.992;2023-02-03T01:18:39;95559.63;;;0.37;100.00
40650;BME280;26342;42.826;23.992;2023-02-03T01:21:07;95556.75;;;0.32;100.00
40650;BME280;26342;42.826;23.992;2023-02-03T01:23:34;95547.56;;;0.21;100.00
40650;BME280;26342;42.826;23.992;2023-02-03T01:26:04;95546.38;;;0.23;100.00
40650;BME280;26342;42.826;23.992;2023-02-03T01:28:31;95549.38;;;0.20;100.00
40650;BME280;26342;42.826;23.992;2023-02-03T01:30:56;95546.56;;;0.22;100.00
40650;BME280;26342;42.826;23.992;2023-02-03T01:33:22;95551.75;;;0.15;100.00
40650;BME280;26342;42.826;23.992;2023-02-03T01:35:47;95549.13;;;0.15;100.00
40650;BME280;26342;42.826;23.992;2023-02-03T01:38:12;95548.69;;;0.12;100.00
40650;BME280;26342;42.826;23.992;2023-02-03T01:40:42;95552.19;;;0.19;100.00
40650;BME280;26342;42.826;23.992;2023-02-03T01:43:09;95529.91;;;0.08;100.00
40650;BME280;26342;42.826;23.992;2023-02-03T01:45:35;95552.06;;;0.27;100.00
40650;BME280;26342;42.826;23.992;2023-02-03T01:48:01;95545.56;;;0.23;100.00
40650;BME280;26342;42.826;23.992;2023-02-03T01:50:33;95556.19;;;0.36;100.00
40650;BME280;26342;42.826;23.992;2023-02-03T01:53:03;95561.50;;;0.43;100.00
40650;BME280;26342;42.826;23.992;2023-02-03T01:55:36;95552.44;;;0.45;100.00
40650;BME280;26342;42.826;23.992;2023-02-03T02:00:42;95552.75;;;0.57;100.00
40650;BME280;26342;42.826;23.992;2023-02-03T02:03:08;95561.47;;;0.64;100.00
40650;BME280;26342;42.826;23.992;2023-02-03T02:05:39;95564.34;;;0.69;100.00
40650;BME280;26342;42.826;23.992;2023-02-03T02:08:06;95557.59;;;0.60;100.00
40650;BME280;26342;42.826;23.992;2023-02-03T02:10:32;95568.44;;;0.50;100.00
40650;BME280;26342;42.826;23.992;2023-02-03T02:12:59;95575.63;;;0.42;100.00
40650;BME280;26342;42.826;23.992;2023-02-03T02:18:19;95579.81;;;0.36;100.00
40650;BME280;26342;42.826;23.992;2023-02-03T02:27:16;95574.56;;;0.36;100.00
40650;BME280;26342;42.826;23.992;2023-02-03T02:32:27;95573.69;;;0.29;100.00
40650;BME280;26342;42.826;23.992;2023-02-03T02:35:08;95591.38;;;0.42;100.00
40650;BME280;26342;42.826;23.992;2023-02-03T02:37:58;95582.50;;;0.43;100.00
40650;BME280;26342;42.826;23.992;2023-02-03T02:40:59;95586.94;;;0.42;100.00
40650;BME280;26342;42.826;23.992;2023-02-03T02:43:41;95587.19;;;0.47;100.00
40650;BME280;26342;42.826;23.992;2023-02-03T02:46:16;95592.25;;;0.49;100.00
40650;BME280;26342;42.826;23.992;2023-02-03T02:48:45;95606.88;;;0.58;100.00
40650;BME280;26342;42.826;23.992;2023-02-03T02:51:13;95604.53;;;0.70;100.00
40650;BME280;26342;42.826;23.992;2023-02-03T02:53:45;95597.81;;;0.61;100.00
40650;BME280;26342;42.826;23.992;2023-02-03T02:56:13;95598.66;;;0.68;100.00
40650;BME280;26342;42.826;23.992;2023-02-03T02:58:42;95611.41;;;0.71;100.00
40650;BME280;26342;42.826;23.992;2023-02-03T03:01:08;95617.88;;;0.68;100.00
40650;BME280;26342;42.826;23.992;2023-02-03T03:03:34;95617.25;;;0.66;100.00
40650;BME280;26342;42.826;23.992;2023-02-03T03:06:07;95615.03;;;0.70;100.00
40650;BME280;26342;42.826;23.992;2023-02-03T03:08:44;95628.19;;;0.70;100.00
40650;BME280;26342;42.826;23.992;2023-02-03T03:11:12;95621.75;;;0.72;100.00
40650;BME280;26342;42.826;23.992;2023-02-03T03:13:41;95632.19;;;0.66;100.00
40650;BME280;26342;42.826;23.992;2023-02-03T03:16:10;95625.56;;;0.70;100.00
40650;BME280;26342;42.826;23.992;2023-02-03T03:21:25;95625.69;;;0.62;100.00
40650;BME280;26342;42.826;23.992;2023-02-03T03:23:54;95609.63;;;0.50;100.00
40650;BME280;26342;42.826;23.992;2023-02-03T03:26:34;95635.44;;;0.68;100.00
40650;BME280;26342;42.826;23.992;2023-02-03T03:31:38;95640.63;;;0.82;100.00
40650;BME280;26342;42.826;23.992;2023-02-03T03:34:05;95639.94;;;0.74;100.00
40650;BME280;26342;42.826;23.992;2023-02-03T03:36:42;95652.34;;;0.80;100.00
40650;BME280;26342;42.826;23.992;2023-02-03T03:39:15;95657.81;;;0.85;100.00
40650;BME280;26342;42.826;23.992;2023-02-03T03:42:00;95653.94;;;0.81;100.00
40650;BME280;26342;42.826;23.992;2023-02-03T03:44:33;95652.75;;;0.83;100.00
40650;BME280;26342;42.826;23.992;2023-02-03T03:47:46;95661.25;;;0.86;100.00
40650;BME280;26342;42.826;23.992;2023-02-03T03:50:33;95665.13;;;0.90;100.00
40650;BME280;26342;42.826;23.992;2023-02-03T03:53:00;95663.13;;;0.92;100.00
40650;BME280;26342;42.826;23.992;2023-02-03T03:55:28;95670.00;;;0.93;100.00
40650;BME280;26342;42.826;23.992;2023-02-03T04:00:22;95676.31;;;0.98;100.00
40650;BME280;26342;42.826;23.992;2023-02-03T04:02:53;95666.75;;;0.91;100.00
40650;BME280;26342;42.826;23.992;2023-02-03T04:05:21;95682.47;;;0.84;100.00
40650;BME280;26342;42.826;23.992;2023-02-03T04:07:47;95680.44;;;0.86;100.00
40650;BME280;26342;42.826;23.992;2023-02-03T04:12:40;95685.09;;;0.84;100.00
40650;BME280;26342;42.826;23.992;2023-02-03T04:15:06;95682.47;;;0.84;100.00
40650;BME280;26342;42.826;23.992;2023-02-03T04:17:31;95680.03;;;0.82;100.00
40650;BME280;26342;42.826;23.992;2023-02-03T04:19:58;95675.78;;;0.81;100.00
40650;BME280;26342;42.826;23.992;2023-02-03T04:22:23;95680.16;;;0.74;100.00
40650;BME280;26342;42.826;23.992;2023-02-03T04:24:49;95663.25;;;0.62;100.00
40650;BME280;26342;42.826;23.992;2023-02-03T04:27:14;95666.06;;;0.61;100.00
40650;BME280;26342;42.826;23.992;2023-02-03T04:29:39;95678.00;;;0.63;100.00
40650;BME280;26342;42.826;23.992;2023-02-03T04:32:05;95672.28;;;0.74;100.00
40650;BME280;26342;42.826;23.992;2023-02-03T04:34:30;95680.84;;;0.83;100.00
40650;BME280;26342;42.826;23.992;2023-02-03T04:36:55;95678.63;;;0.87;100.00
40650;BME280;26342;42.826;23.992;2023-02-03T04:39:21;95691.84;;;0.93;100.00
40650;BME280;26342;42.826;23.992;2023-02-03T04:41:46;95697.09;;;0.93;100.00
40650;BME280;26342;42.826;23.992;2023-02-03T04:44:12;95684.09;;;0.85;100.00
40650;BME280;26342;42.826;23.992;2023-02-03T04:46:37;95699.09;;;0.91;100.00
40650;BME280;26342;42.826;23.992;2023-02-03T04:49:03;95696.66;;;0.90;100.00
40650;BME280;26342;42.826;23.992;2023-02-03T04:51:28;95693.84;;;0.91;100.00
40650;BME280;26342;42.826;23.992;2023-02-03T04:53:53;95693.28;;;0.96;100.00
40650;BME280;26342;42.826;23.992;2023-02-03T04:56:19;95685.63;;;1.01;100.00
40650;BME280;26342;42.826;23.992;2023-02-03T04:58:44;95690.06;;;1.00;100.00
40650;BME280;26342;42.826;23.992;2023-02-03T05:01:10;95685.28;;;0.82;100.00
40650;BME280;26342;42.826;23.992;2023-02-03T05:03:35;95693.91;;;0.76;100.00
40650;BME280;26342;42.826;23.992;2023-02-03T05:06:01;95692.78;;;0.86;100.00
40650;BME280;26342;42.826;23.992;2023-02-03T05:08:27;95699.50;;;0.88;100.00
40650;BME280;26342;42.826;23.992;2023-02-03T05:10:53;95701.66;;;0.84;100.00
40650;BME280;26342;42.826;23.992;2023-02-03T05:13:18;95696.06;;;0.88;100.00
40650;BME280;26342;42.826;23.992;2023-02-03T05:15:43;95700.16;;;0.97;100.00
40650;BME280;26342;42.826;23.992;2023-02-03T05:18:09;95711.38;;;1.05;100.00
40650;BME280;26342;42.826;23.992;2023-02-03T05:20:34;95702.59;;;0.98;100.00
40650;BME280;26342;42.826;23.992;2023-02-03T05:22:59;95709.28;;;1.01;100.00
40650;BME280;26342;42.826;23.992;2023-02-03T05:25:25;95705.91;;;1.07;100.00
40650;BME280;26342;42.826;23.992;2023-02-03T05:27:51;95705.50;;;1.03;100.00
40650;BME280;26342;42.826;23.992;2023-02-03T05:30:16;95712.38;;;1.04;100.00
40650;BME280;26342;42.826;23.992;2023-02-03T05:32:42;95714.59;;;1.07;100.00
40650;BME280;26342;42.826;23.992;2023-02-03T05:35:07;95716.00;;;1.03;100.00
40650;BME280;26342;42.826;23.992;2023-02-03T05:37:32;95710.03;;;0.95;100.00
40650;BME280;26342;42.826;23.992;2023-02-03T05:39:58;95725.19;;;0.93;100.00
40650;BME280;26342;42.826;23.992;2023-02-03T05:42:47;95719.13;;;0.92;100.00
40650;BME280;26342;42.826;23.992;2023-02-03T05:45:14;95727.38;;;0.89;100.00
40650;BME280;26342;42.826;23.992;2023-02-03T05:47:39;95724.81;;;0.96;100.00
40650;BME280;26342;42.826;23.992;2023-02-03T05:50:05;95716.97;;;1.02;100.00
40650;BME280;26342;42.826;23.992;2023-02-03T05:52:30;95720.88;;;1.06;100.00
40650;BME280;26342;42.826;23.992;2023-02-03T05:54:55;95730.81;;;1.11;100.00
40650;BME280;26342;42.826;23.992;2023-02-03T05:57:21;95728.00;;;1.13;100.00
40650;BME280;26342;42.826;23.992;2023-02-03T05:59:46;95732.06;;;1.15;100.00
40650;BME280;26342;42.826;23.992;2023-02-03T06:02:12;95747.41;;;1.11;100.00
40650;BME280;26342;42.826;23.992;2023-02-03T06:04:37;95739.88;;;1.08;100.00
40650;BME280;26342;42.826;23.992;2023-02-03T06:07:02;95756.47;;;1.09;100.00
40650;BME280;26342;42.826;23.992;2023-02-03T06:09:28;95747.53;;;1.03;100.00
40650;BME280;26342;42.826;23.992;2023-02-03T06:11:53;95745.06;;;1.02;100.00
40650;BME280;26342;42.826;23.992;2023-02-03T06:14:18;95762.84;;;1.00;100.00
40650;BME280;26342;42.826;23.992;2023-02-03T06:16:44;95766.91;;;1.02;100.00
40650;BME280;26342;42.826;23.992;2023-02-03T06:19:09;95749.72;;;1.00;100.00
40650;BME280;26342;42.826;23.992;2023-02-03T06:21:35;95757.66;;;1.06;100.00
40650;BME280;26342;42.826;23.992;2023-02-03T06:24:00;95765.34;;;1.08;100.00
40650;BME280;26342;42.826;23.992;2023-02-03T06:26:25;95770.06;;;1.13;100.00
40650;BME280;26342;42.826;23.992;2023-02-03T06:28:51;95766.22;;;1.15;100.00
40650;BME280;26342;42.826;23.992;2023-02-03T06:31:16;95775.81;;;1.23;100.00
40650;BME280;26342;42.826;23.992;2023-02-03T06:33:41;95782.88;;;1.22;100.00
40650;BME280;26342;42.826;23.992;2023-02-03T06:36:07;95781.06;;;1.23;100.00
40650;BME280;26342;42.826;23.992;2023-02-03T06:38:33;95776.88;;;1.28;100.00
40650;BME280;26342;42.826;23.992;2023-02-03T06:40:58;95780.19;;;1.37;100.00
40650;BME280;26342;42.826;23.992;2023-02-03T06:43:23;95790.13;;;1.42;100.00
40650;BME280;26342;42.826;23.992;2023-02-03T06:45:49;95798.00;;;1.42;100.00
40650;BME280;26342;42.826;23.992;2023-02-03T06:48:14;95796.03;;;1.44;100.00
40650;BME280;26342;42.826;23.992;2023-02-03T06:50:40;95803.78;;;1.52;100.00
40650;BME280;26342;42.826;23.992;2023-02-03T06:53:05;95803.13;;;1.50;100.00
40650;BME280;26342;42.826;23.992;2023-02-03T06:55:31;95787.25;;;1.36;100.00
40650;BME280;26342;42.826;23.992;2023-02-03T06:57:56;95797.97;;;1.35;100.00
40650;BME280;26342;42.826;23.992;2023-02-03T07:00:22;95822.13;;;1.45;100.00
40650;BME280;26342;42.826;23.992;2023-02-03T07:02:56;95824.81;;;1.52;100.00
40650;BME280;26342;42.826;23.992;2023-02-03T07:05:22;95823.81;;;1.53;100.00
40650;BME280;26342;42.826;23.992;2023-02-03T07:07:49;95839.66;;;1.59;100.00
40650;BME280;26342;42.826;23.992;2023-02-03T07:10:15;95839.47;;;1.61;100.00
40650;BME280;26342;42.826;23.992;2023-02-03T07:12:40;95829.00;;;1.46;100.00
40650;BME280;26342;42.826;23.992;2023-02-03T07:15:06;95845.47;;;1.55;100.00
40650;BME280;26342;42.826;23.992;2023-02-03T07:17:32;95845.06;;;1.58;100.00
40650;BME280;26342;42.826;23.992;2023-02-03T07:19:57;95843.31;;;1.65;100.00
40650;BME280;26342;42.826;23.992;2023-02-03T07:22:23;95843.50;;;1.63;100.00
40650;BME280;26342;42.826;23.992;2023-02-03T07:24:48;95839.06;;;1.64;100.00
40650;BME280;26342;42.826;23.992;2023-02-03T07:27:14;95838.88;;;1.65;100.00
40650;BME280;26342;42.826;23.992;2023-02-03T07:29:39;95842.75;;;1.70;100.00
40650;BME280;26342;42.826;23.992;2023-02-03T07:32:05;95841.56;;;1.72;100.00
40650;BME280;26342;42.826;23.992;2023-02-03T07:34:30;95842.09;;;1.61;100.00
40650;BME280;26342;42.826;23.992;2023-02-03T07:36:56;95837.50;;;1.48;100.00
40650;BME280;26342;42.826;23.992;2023-02-03T07:39:21;95845.78;;;1.66;100.00
40650;BME280;26342;42.826;23.992;2023-02-03T07:41:47;95841.97;;;1.69;100.00
40650;BME280;26342;42.826;23.992;2023-02-03T07:44:12;95835.44;;;1.65;100.00
40650;BME280;26342;42.826;23.992;2023-02-03T07:46:38;95837.91;;;1.66;100.00
40650;BME280;26342;42.826;23.992;2023-02-03T07:49:11;95839.59;;;1.74;100.00
40650;BME280;26342;42.826;23.992;2023-02-03T07:51:37;95849.38;;;1.87;100.00
40650;BME280;26342;42.826;23.992;2023-02-03T07:54:02;95835.41;;;1.86;100.00
40650;BME280;26342;42.826;23.992;2023-02-03T07:56:28;95846.41;;;1.96;100.00
40650;BME280;26342;42.826;23.992;2023-02-03T07:58:54;95831.78;;;1.87;100.00
40650;BME280;26342;42.826;23.992;2023-02-03T08:01:20;95856.94;;;2.24;100.00
40650;BME280;26342;42.826;23.992;2023-02-03T08:03:45;95852.50;;;2.25;100.00
40650;BME280;26342;42.826;23.992;2023-02-03T08:06:11;95860.47;;;2.38;100.00
40650;BME280;26342;42.826;23.992;2023-02-03T08:08:36;95851.25;;;2.56;100.00
40650;BME280;26342;42.826;23.992;2023-02-03T08:11:02;95850.19;;;2.50;100.00
40650;BME280;26342;42.826;23.992;2023-02-03T08:13:27;95844.72;;;2.45;100.00
40650;BME280;26342;42.826;23.992;2023-02-03T08:15:53;95852.91;;;2.63;100.00
40650;BME280;26342;42.826;23.992;2023-02-03T08:18:18;95851.97;;;2.77;100.00
40650;BME280;26342;42.826;23.992;2023-02-03T08:20:45;95830.75;;;2.99;100.00
40650;BME280;26342;42.826;23.992;2023-02-03T08:23:11;95846.09;;;3.50;100.00
40650;BME280;26342;42.826;23.992;2023-02-03T08:25:37;95853.66;;;3.79;100.00
40650;BME280;26342;42.826;23.992;2023-02-03T08:28:02;95851.38;;;4.09;100.00
40650;BME280;26342;42.826;23.992;2023-02-03T08:30:28;95857.06;;;4.26;95.88
40650;BME280;26342;42.826;23.992;2023-02-03T08:32:53;95867.22;;;4.42;92.95
40650;BME280;26342;42.826;23.992;2023-02-03T08:35:18;95842.19;;;4.45;88.65
40650;BME280;26342;42.826;23.992;2023-02-03T08:37:44;95865.47;;;4.88;91.68
40650;BME280;26342;42.826;23.992;2023-02-03T08:40:10;95862.34;;;5.04;87.83
40650;BME280;26342;42.826;23.992;2023-02-03T08:42:35;95861.69;;;5.22;84.83
40650;BME280;26342;42.826;23.992;2023-02-03T08:45:01;95863.19;;;4.98;83.94
40650;BME280;26342;42.826;23.992;2023-02-03T08:47:27;95856.94;;;4.86;84.42
40650;BME280;26342;42.826;23.992;2023-02-03T08:49:52;95859.69;;;5.04;84.01
40650;BME280;26342;42.826;23.992;2023-02-03T08:52:18;95859.63;;;5.24;90.92
40650;BME280;26342;42.826;23.992;2023-02-03T08:54:43;95859.19;;;5.65;83.94
40650;BME280;26342;42.826;23.992;2023-02-03T08:57:09;95842.47;;;5.96;80.32
40650;BME280;26342;42.826;23.992;2023-02-03T08:59:37;95851.19;;;6.28;74.05
40650;BME280;26342;42.826;23.992;2023-02-03T09:02:05;95848.63;;;6.40;79.72
40650;BME280;26342;42.826;23.992;2023-02-03T09:04:31;95846.81;;;6.77;75.80
40650;BME280;26342;42.826;23.992;2023-02-03T09:06:59;95850.06;;;6.97;69.11
40650;BME280;26342;42.826;23.992;2023-02-03T09:09:24;95859.31;;;7.25;71.77
40650;BME280;26342;42.826;23.992;2023-02-03T09:11:51;95855.25;;;7.22;65.38
40650;BME280;26342;42.826;23.992;2023-02-03T09:14:19;95862.81;;;6.89;63.34
40650;BME280;26342;42.826;23.992;2023-02-03T09:16:45;95863.88;;;6.63;72.56
40650;BME280;26342;42.826;23.992;2023-02-03T09:19:10;95867.72;;;6.85;65.60
40650;BME280;26342;42.826;23.992;2023-02-03T09:21:37;95853.16;;;6.76;76.66
40650;BME280;26342;42.826;23.992;2023-02-03T09:24:03;95872.56;;;7.25;69.80
40650;BME280;26342;42.826;23.992;2023-02-03T09:26:28;95870.63;;;6.84;65.77
40650;BME280;26342;42.826;23.992;2023-02-03T09:28:54;95874.34;;;6.58;70.74
40650;BME280;26342;42.826;23.992;2023-02-03T09:31:19;95871.13;;;6.31;64.43
40650;BME280;26342;42.826;23.992;2023-02-03T09:33:45;95874.84;;;5.98;72.48
40650;BME280;26342;42.826;23.992;2023-02-03T09:36:11;95877.66;;;5.72;77.38
40650;BME280;26342;42.826;23.992;2023-02-03T09:38:37;95877.16;;;5.56;77.03
40650;BME280;26342;42.826;23.992;2023-02-03T09:43:56;95862.97;;;5.44;71.70
40650;BME280;26342;42.826;23.992;2023-02-03T09:46:27;95863.06;;;5.24;79.50
40650;BME280;26342;42.826;23.992;2023-02-03T09:49:07;95864.41;;;5.40;80.21
40650;BME280;26342;42.826;23.992;2023-02-03T09:51:43;95857.28;;;5.41;71.86
40650;BME280;26342;42.826;23.992;2023-02-03T09:56:55;95839.78;;;5.40;71.14
40650;BME280;26342;42.826;23.992;2023-02-03T09:59:24;95836.34;;;5.39;73.00
40650;BME280;26342;42.826;23.992;2023-02-03T10:02:13;95834.50;;;5.40;77.10
40650;BME280;26342;42.826;23.992;2023-02-03T10:07:36;95810.09;;;6.37;70.64
40650;BME280;26342;42.826;23.992;2023-02-03T10:18:16;95809.22;;;6.62;62.41
40650;BME280;26342;42.826;23.992;2023-02-03T10:20:47;95809.28;;;6.37;66.50
40650;BME280;26342;42.826;23.992;2023-02-03T10:23:28;95816.00;;;6.39;70.11
40650;BME280;26342;42.826;23.992;2023-02-03T10:25:58;95813.72;;;6.25;64.18
40650;BME280;26342;42.826;23.992;2023-02-03T10:28:29;95816.69;;;6.10;66.15
40650;BME280;26342;42.826;23.992;2023-02-03T10:30:56;95808.28;;;5.95;64.41
40650;BME280;26342;42.826;23.992;2023-02-03T10:33:27;95818.81;;;6.01;63.65
40650;BME280;26342;42.826;23.992;2023-02-03T10:41:16;95799.78;;;6.48;61.50
40650;BME280;26342;42.826;23.992;2023-02-03T10:43:43;95798.56;;;6.50;60.54
40650;BME280;26342;42.826;23.992;2023-02-03T10:46:17;95784.91;;;6.47;60.79
40650;BME280;26342;42.826;23.992;2023-02-03T10:48:43;95774.91;;;6.30;67.64
40650;BME280;26342;42.826;23.992;2023-02-03T10:51:26;95797.72;;;6.31;66.84
40650;BME280;26342;42.826;23.992;2023-02-03T10:53:54;95801.03;;;6.08;64.52
40650;BME280;26342;42.826;23.992;2023-02-03T10:56:24;95796.09;;;6.12;67.24
40650;BME280;26342;42.826;23.992;2023-02-03T10:58:55;95795.63;;;6.40;63.73
40650;BME280;26342;42.826;23.992;2023-02-03T11:01:26;95786.13;;;6.32;61.11
40650;BME280;26342;42.826;23.992;2023-02-03T11:04:00;95781.63;;;6.51;63.31
40650;BME280;26342;42.826;23.992;2023-02-03T11:06:27;95777.06;;;6.58;66.02
40650;BME280;26342;42.826;23.992;2023-02-03T11:08:53;95772.69;;;6.27;63.83
40650;BME280;26342;42.826;23.992;2023-02-03T11:13:45;95764.34;;;5.80;66.55
40650;BME280;26342;42.826;23.992;2023-02-03T11:16:15;95759.84;;;5.81;62.31
40650;BME280;26342;42.826;23.992;2023-02-03T11:19:00;95754.66;;;5.68;65.14
40650;BME280;26342;42.826;23.992;2023-02-03T11:21:50;95747.81;;;5.60;64.86
40650;BME280;26342;42.826;23.992;2023-02-03T11:24:27;95756.19;;;5.57;65.33
40650;BME280;26342;42.826;23.992;2023-02-03T11:26:55;95747.47;;;5.50;66.28
40650;BME280;26342;42.826;23.992;2023-02-03T11:29:29;95732.91;;;5.41;63.94
40650;BME280;26342;42.826;23.992;2023-02-03T11:31:58;95752.78;;;5.50;64.09
40650;BME280;26342;42.826;23.992;2023-02-03T11:34:28;95743.31;;;5.36;69.26
40650;BME280;26342;42.826;23.992;2023-02-03T11:36:55;95744.56;;;5.33;65.88
40650;BME280;26342;42.826;23.992;2023-02-03T11:41:48;95735.69;;;5.21;64.37
40650;BME280;26342;42.826;23.992;2023-02-03T11:44:26;95745.31;;;5.15;65.49
40650;BME280;26342;42.826;23.992;2023-02-03T11:47:22;95742.88;;;5.14;60.28
40650;BME280;26342;42.826;23.992;2023-02-03T11:50:02;95741.47;;;5.04;64.24
40650;BME280;26342;42.826;23.992;2023-02-03T12:01:06;95735.31;;;4.79;64.84
40650;BME280;26342;42.826;23.992;2023-02-03T12:20:11;95716.81;;;4.79;59.35
40650;BME280;26342;42.826;23.992;2023-02-03T12:22:59;95710.81;;;4.97;61.67
40650;BME280;26342;42.826;23.992;2023-02-03T12:30:38;95691.72;;;5.20;61.73
40650;BME280;26342;42.826;23.992;2023-02-03T12:33:28;95699.75;;;5.38;61.41
40650;BME280;26342;42.826;23.992;2023-02-03T12:36:07;95703.47;;;5.30;63.02
40650;BME280;26342;42.826;23.992;2023-02-03T12:38:44;95696.44;;;5.18;60.33
40650;BME280;26342;42.826;23.992;2023-02-03T12:41:16;95698.50;;;5.16;61.58
40650;BME280;26342;42.826;23.992;2023-02-03T12:43:46;95694.50;;;5.07;57.31
40650;BME280;26342;42.826;23.992;2023-02-03T12:46:42;95688.91;;;4.90;60.10
40650;BME280;26342;42.826;23.992;2023-02-03T12:52:10;95689.78;;;4.77;63.25
40650;BME280;26342;42.826;23.992;2023-02-03T12:54:51;95691.44;;;4.71;60.63
40650;BME280;26342;42.826;23.992;2023-02-03T12:57:38;95693.25;;;4.78;60.83
40650;BME280;26342;42.826;23.992;2023-02-03T13:00:20;95685.78;;;4.68;58.40
40650;BME280;26342;42.826;23.992;2023-02-03T13:08:26;95668.75;;;4.89;57.78
40650;BME280;26342;42.826;23.992;2023-02-03T13:13:54;95672.72;;;4.73;60.83
40650;BME280;26342;42.826;23.992;2023-02-03T13:16:25;95669.28;;;4.66;62.96
40650;BME280;26342;42.826;23.992;2023-02-03T13:19:02;95680.84;;;4.78;60.87
40650;BME280;26342;42.826;23.992;2023-02-03T13:21:29;95674.41;;;4.67;61.37
40650;BME280;26342;42.826;23.992;2023-02-03T13:23:56;95677.41;;;4.71;63.21
40650;BME280;26342;42.826;23.992;2023-02-03T13:34:28;95677.44;;;4.64;67.91
40650;BME280;26342;42.826;23.992;2023-02-03T13:40:14;95664.69;;;4.55;66.64
40650;BME280;26342;42.826;23.992;2023-02-03T13:42:46;95662.81;;;4.62;63.80
40650;BME280;26342;42.826;23.992;2023-02-03T13:48:34;95657.50;;;4.68;64.24
40650;BME280;26342;42.826;23.992;2023-02-03T13:51:13;95652.44;;;4.67;64.55
40650;BME280;26342;42.826;23.992;2023-02-03T13:53:43;95661.38;;;4.66;65.26
40650;BME280;26342;42.826;23.992;2023-02-03T13:56:17;95666.25;;;4.69;67.61
40650;BME280;26342;42.826;23.992;2023-02-03T14:01:38;95664.44;;;4.63;67.29
40650;BME280;26342;42.826;23.992;2023-02-03T14:06:56;95666.03;;;4.70;69.69
40650;BME280;26342;42.826;23.992;2023-02-03T14:11:51;95675.59;;;4.65;71.43
40650;BME280;26342;42.826;23.992;2023-02-03T14:17:01;95668.38;;;4.54;67.86
40650;BME280;26342;42.826;23.992;2023-02-03T14:24:29;95663.97;;;4.34;65.29
40650;BME280;26342;42.826;23.992;2023-02-03T14:26:56;95682.47;;;4.34;68.71
40650;BME280;26342;42.826;23.992;2023-02-03T14:29:28;95677.41;;;4.33;66.42
40650;BME280;26342;42.826;23.992;2023-02-03T14:31:59;95672.34;;;4.25;68.97
40650;BME280;26342;42.826;23.992;2023-02-03T14:34:43;95669.13;;;4.23;65.42
40650;BME280;26342;42.826;23.992;2023-02-03T14:49:46;95687.94;;;3.88;60.26
40650;BME280;26342;42.826;23.992;2023-02-03T14:54:32;95681.66;;;3.76;61.82
40650;BME280;26342;42.826;23.992;2023-02-03T14:59:59;95690.59;;;3.68;62.74
40650;BME280;26342;42.826;23.992;2023-02-03T15:02:28;95688.78;;;3.55;61.27
40650;BME280;26342;42.826;23.992;2023-02-03T15:07:45;95686.97;;;3.49;64.97
40650;BME280;26342;42.826;23.992;2023-02-03T15:10:19;95687.19;;;3.41;59.60
40650;BME280;26342;42.826;23.992;2023-02-03T15:12:53;95688.00;;;3.42;61.66
40650;BME280;26342;42.826;23.992;2023-02-03T15:17:52;95677.44;;;3.22;58.00
40650;BME280;26342;42.826;23.992;2023-02-03T15:22:53;95672.97;;;3.16;65.37
40650;BME280;26342;42.826;23.992;2023-02-03T15:25:21;95674.63;;;3.17;57.07
40650;BME280;26342;42.826;23.992;2023-02-03T15:27:49;95660.19;;;3.06;66.15
40650;BME280;26342;42.826;23.992;2023-02-03T15:30:26;95668.31;;;2.98;64.84